Time;durP1;ratioP1;P1;durP2;ratioP2;P2;SDS_P1;SDS_P2;PMS_P1;PMS_P2;Temp;Humidity;BMP_temperature;BMP_pressure;BME280_temperature;BME280_humidity;BME280_pressure;Samples;Min_cycle;Max_cycle;Signal;HPM_P1;HPM_P2
2021/10/26 00:01:54;;;;;;;0.70;0.60;;;;;;;10.47;98.33;101321.16;5070016;28;20451;-75
2021/10/26 00:04:23;;;;;;;0.70;0.63;;;;;;;10.44;99.84;101326.47;5053350;28;20538;-74
2021/10/26 00:06:51;;;;;;;0.70;0.70;;;;;;;10.42;99.95;101330.88;5055153;28;20963;-74
2021/10/26 00:09:18;;;;;;;0.70;0.60;;;;;;;10.41;99.93;101329.22;5053648;28;20829;-75
2021/10/26 00:11:45;;;;;;;0.80;0.80;;;;;;;10.38;98.00;101329.31;5055099;28;20849;-74
2021/10/26 00:14:12;;;;;;;0.70;0.70;;;;;;;10.36;99.04;101327.69;5054471;28;20452;-75
2021/10/26 00:16:40;;;;;;;0.70;0.70;;;;;;;10.33;100.00;101323.47;5053574;28;20436;-75
2021/10/26 00:19:07;;;;;;;0.70;0.60;;;;;;;10.37;98.21;101325.03;5070314;28;20530;-75
2021/10/26 00:21:34;;;;;;;0.60;0.60;;;;;;;10.42;99.27;101324.84;5053498;28;20494;-75
2021/10/26 00:24:01;;;;;;;0.80;0.80;;;;;;;10.49;97.54;101321.09;5053921;28;20893;-75
2021/10/26 00:26:29;;;;;;;0.70;0.70;;;;;;;10.49;98.20;101316.75;5054132;28;20556;-73
2021/10/26 00:28:56;;;;;;;0.70;0.70;;;;;;;10.44;98.22;101320.44;5053605;28;20445;-74
2021/10/26 00:31:25;;;;;;;0.70;0.63;;;;;;;10.45;97.88;101325.56;5086906;28;20459;-75
2021/10/26 00:34:06;;;;;;;0.70;0.60;;;;;;;10.47;97.60;101320.31;5054212;28;20469;-75
2021/10/26 00:36:43;;;;;;;0.63;0.60;;;;;;;10.52;98.04;101328.75;5069526;28;20455;-74
2021/10/26 00:39:15;;;;;;;0.70;0.60;;;;;;;10.47;98.38;101322.91;5052435;28;20474;-73
2021/10/26 00:41:53;;;;;;;0.60;0.60;;;;;;;10.42;98.71;101333.47;5052573;28;20501;-74
2021/10/26 00:44:29;;;;;;;0.60;0.50;;;;;;;10.35;97.54;101328.59;5068978;28;20464;-74
2021/10/26 00:47:02;;;;;;;0.70;0.60;;;;;;;10.30;98.74;101333.97;5069051;28;21014;-74
2021/10/26 00:49:35;;;;;;;0.70;0.70;;;;;;;10.28;97.94;101335.78;5086716;28;21013;-74
2021/10/26 00:52:07;;;;;;;0.70;0.60;;;;;;;10.24;98.27;101335.03;5052819;28;20545;-75
2021/10/26 00:54:38;;;;;;;0.67;0.60;;;;;;;10.24;99.84;101329.84;5068942;28;20466;-75
2021/10/26 00:57:15;;;;;;;1.00;0.70;;;;;;;10.24;99.51;101337.63;5068776;28;20538;-73
2021/10/26 00:59:51;;;;;;;0.70;0.60;;;;;;;10.25;99.36;101336.72;5067826;28;20957;-74
2021/10/26 01:02:27;;;;;;;0.60;0.50;;;;;;;10.28;99.55;101343.56;5043171;28;20448;-74
2021/10/26 01:05:02;;;;;;;0.60;0.60;;;;;;;10.30;99.67;101341.75;5068459;28;20455;-75
2021/10/26 01:07:36;;;;;;;0.70;0.60;;;;;;;10.35;98.49;101339.81;5053954;28;20479;-74
2021/10/26 01:10:08;;;;;;;0.70;0.60;;;;;;;10.42;98.10;101335.22;5051635;28;20537;-74
2021/10/26 01:12:46;;;;;;;0.60;0.60;;;;;;;10.43;97.51;101334.31;5101297;28;20463;-74
2021/10/26 01:15:21;;;;;;;0.60;0.57;;;;;;;10.45;97.95;101333.34;5059893;28;20515;-74
2021/10/26 01:17:54;;;;;;;0.60;0.57;;;;;;;10.45;98.00;101335.94;5068719;28;20447;-74
2021/10/26 01:20:31;;;;;;;0.60;0.50;;;;;;;10.42;98.17;101336.06;5058364;28;20455;-74
2021/10/26 01:23:03;;;;;;;0.60;0.60;;;;;;;10.56;98.63;101337.25;5083234;28;20555;-74
2021/10/26 01:25:41;;;;;;;0.60;0.60;;;;;;;10.52;96.84;101332.19;5051981;28;20522;-74
2021/10/26 01:28:13;;;;;;;0.70;0.60;;;;;;;10.55;96.90;101331.22;5086222;28;20998;-74
2021/10/26 01:30:53;;;;;;;0.60;0.60;;;;;;;10.51;96.89;101332.28;5068537;28;20502;-74
2021/10/26 01:33:41;;;;;;;0.70;0.60;;;;;;;10.51;97.39;101335.69;5045825;28;20455;-74
2021/10/26 01:36:15;;;;;;;0.70;0.70;;;;;;;10.54;96.61;101337.31;5081300;28;20440;-74
2021/10/26 01:38:42;;;;;;;0.60;0.60;;;;;;;10.51;97.60;101335.69;5067425;28;20497;-74
2021/10/26 01:41:09;;;;;;;0.70;0.60;;;;;;;10.49;96.49;101332.31;5052997;28;20439;-74
2021/10/26 01:43:37;;;;;;;0.67;0.60;;;;;;;10.46;97.25;101342.84;5050065;28;20536;-74
2021/10/26 01:46:05;;;;;;;0.70;0.60;;;;;;;10.54;96.60;101344.28;5049371;28;20448;-74
2021/10/26 01:48:37;;;;;;;0.70;0.60;;;;;;;10.55;96.94;101343.34;5084797;28;20526;-74
2021/10/26 01:51:05;;;;;;;0.60;0.60;;;;;;;10.51;97.96;101337.47;5051280;28;20463;-74
2021/10/26 01:53:35;;;;;;;0.70;0.70;;;;;;;10.49;95.34;101340.09;5051296;28;20496;-74
2021/10/26 01:56:08;;;;;;;0.60;0.60;;;;;;;10.49;96.87;101342.69;5069163;28;20530;-74
2021/10/26 01:58:49;;;;;;;1.07;1.00;;;;;;;10.46;97.26;101344.56;5051698;28;20497;-74
2021/10/26 02:01:21;;;;;;;0.70;0.60;;;;;;;10.41;97.40;101337.00;5068594;28;20856;-74
2021/10/26 02:03:49;;;;;;;0.60;0.60;;;;;;;10.38;98.28;101346.63;5050784;28;20455;-74
2021/10/26 02:06:20;;;;;;;0.60;0.60;;;;;;;10.34;99.09;101339.88;5068121;28;20444;-73
2021/10/26 02:08:49;;;;;;;0.70;0.60;;;;;;;10.33;97.18;101343.38;5085226;28;20888;-74
2021/10/26 02:11:19;;;;;;;0.60;0.60;;;;;;;10.35;98.85;101336.38;5050826;28;20975;-75
2021/10/26 02:13:47;;;;;;;0.70;0.60;;;;;;;10.28;98.59;101331.44;5085383;28;20452;-74
2021/10/26 02:16:18;;;;;;;0.70;0.60;;;;;;;10.23;97.65;101338.53;5053154;28;20408;-74
2021/10/26 02:18:47;;;;;;;0.60;0.60;;;;;;;10.13;97.57;101332.03;5051867;28;20963;-74
2021/10/26 02:21:17;;;;;;;0.60;0.60;;;;;;;10.22;98.46;101336.84;5050522;28;20483;-75
2021/10/26 02:23:44;;;;;;;0.70;0.60;;;;;;;10.18;98.72;101339.63;5052701;28;20463;-74
2021/10/26 02:26:13;;;;;;;0.70;0.60;;;;;;;10.08;97.93;101333.97;5051882;28;20448;-74
2021/10/26 02:28:45;;;;;;;0.60;0.60;;;;;;;9.99;97.44;101337.75;5085073;28;20463;-74
2021/10/26 02:31:12;;;;;;;0.70;0.60;;;;;;;10.11;98.27;101341.59;5067085;28;20456;-74
2021/10/26 02:33:40;;;;;;;0.70;0.60;;;;;;;10.17;97.32;101337.94;5084884;28;20431;-75
2021/10/26 02:36:08;;;;;;;0.60;0.60;;;;;;;10.20;98.97;101345.59;5068192;28;20921;-74
2021/10/26 02:38:36;;;;;;;0.60;0.60;;;;;;;10.18;98.15;101345.66;5047812;28;20494;-74
2021/10/26 02:41:04;;;;;;;0.60;0.50;;;;;;;10.20;99.40;101343.00;5064874;28;20996;-74
2021/10/26 02:43:32;;;;;;;1.10;1.00;;;;;;;10.22;97.69;101346.38;5051105;28;20501;-75
2021/10/26 02:46:01;;;;;;;0.70;0.60;;;;;;;10.28;98.20;101340.97;5067772;28;20432;-74
2021/10/26 02:48:28;;;;;;;0.70;0.70;;;;;;;10.43;96.81;101340.34;5035694;28;20543;-75
2021/10/26 02:50:56;;;;;;;0.60;0.50;;;;;;;10.50;96.65;101343.53;5053673;28;20455;-75
2021/10/26 02:53:23;;;;;;;0.60;0.60;;;;;;;10.47;96.56;101341.91;5055249;28;20463;-74
2021/10/26 02:55:50;;;;;;;0.60;0.60;;;;;;;10.51;97.20;101346.09;5055331;28;20546;-74
2021/10/26 02:58:18;;;;;;;0.70;0.60;;;;;;;10.51;96.93;101348.69;5088625;28;20498;-74
2021/10/26 03:00:48;;;;;;;0.60;0.50;;;;;;;10.49;97.14;101350.50;5053942;28;20456;-74
2021/10/26 03:03:18;;;;;;;0.70;0.60;;;;;;;10.45;98.01;101348.91;5088125;28;20504;-74
2021/10/26 03:05:47;;;;;;;0.60;0.60;;;;;;;10.40;96.50;101344.81;5054271;28;20443;-74
2021/10/26 03:08:15;;;;;;;0.70;0.70;;;;;;;10.49;98.02;101347.91;5054838;28;20813;-74
2021/10/26 03:10:45;;;;;;;0.60;0.60;;;;;;;10.57;95.05;101342.38;5089061;28;20789;-74
2021/10/26 03:13:16;;;;;;;2.60;1.27;;;;;;;10.55;97.34;101340.75;5088639;28;20542;-74
2021/10/26 03:15:44;;;;;;;0.60;0.60;;;;;;;10.52;96.82;101345.16;5054996;28;20447;-74
2021/10/26 03:18:18;;;;;;;0.70;0.60;;;;;;;10.47;97.78;101347.09;5071262;28;21043;-74
2021/10/26 03:20:46;;;;;;;0.60;0.60;;;;;;;10.44;95.63;101346.41;5054952;28;20970;-74
2021/10/26 03:23:14;;;;;;;0.60;0.60;;;;;;;10.48;96.21;101345.34;5070545;28;20482;-74
2021/10/26 03:25:43;;;;;;;1.00;1.00;;;;;;;10.52;95.97;101344.31;5071683;28;20989;-74
2021/10/26 03:28:10;;;;;;;0.70;0.70;;;;;;;10.57;95.25;101347.56;5086687;28;20474;-74
2021/10/26 03:30:38;;;;;;;0.60;0.50;;;;;;;10.55;94.69;101351.97;5052966;28;20462;-74
2021/10/26 03:33:28;;;;;;;0.60;0.60;;;;;;;10.60;96.92;101351.78;5053998;28;20460;-75
2021/10/26 03:36:04;;;;;;;0.60;0.60;;;;;;;10.61;94.36;101354.34;5049752;28;20484;-74
2021/10/26 03:38:34;;;;;;;0.70;0.63;;;;;;;10.64;95.38;101353.38;5087959;28;20487;-73
2021/10/26 03:41:02;;;;;;;0.60;0.60;;;;;;;10.58;95.73;101351.84;5071348;28;20462;-73
2021/10/26 03:43:28;;;;;;;0.60;0.60;;;;;;;10.53;94.73;101353.78;5054022;28;20463;-74
2021/10/26 03:45:56;;;;;;;0.70;0.60;;;;;;;10.50;96.88;101362.53;5086691;28;20452;-73
2021/10/26 03:48:23;;;;;;;0.70;0.70;;;;;;;10.53;96.31;101361.56;5070306;28;20460;-74
2021/10/26 03:50:53;;;;;;;0.60;0.60;;;;;;;10.56;96.96;101358.00;5054261;28;21019;-74
2021/10/26 03:53:21;;;;;;;0.70;0.60;;;;;;;10.54;96.28;101360.69;5053975;28;20537;-73
2021/10/26 03:55:48;;;;;;;0.60;0.60;;;;;;;10.53;94.64;101366.75;5053298;28;20862;-74
2021/10/26 03:58:18;;;;;;;0.80;0.80;;;;;;;10.52;95.50;101365.94;5086009;28;20483;-73
2021/10/26 04:00:50;;;;;;;0.60;0.50;;;;;;;10.49;94.89;101368.66;5068060;28;20539;-74
2021/10/26 04:03:27;;;;;;;0.70;0.60;;;;;;;10.45;95.26;101364.50;5052624;28;20447;-73
2021/10/26 04:06:04;;;;;;;0.60;0.57;;;;;;;10.35;97.12;101367.53;5052910;28;20485;-73
2021/10/26 04:11:11;;;;;;;0.70;0.70;;;;;;;10.19;98.02;101365.53;5052618;28;20432;-74
2021/10/26 04:13:38;;;;;;;0.60;0.60;;;;;;;10.09;95.98;101365.03;5068596;28;20928;-73
2021/10/26 04:16:06;;;;;;;0.60;0.60;;;;;;;9.94;98.14;101362.16;5052224;28;20417;-73
2021/10/26 04:18:34;;;;;;;0.70;0.60;;;;;;;9.89;97.51;101364.94;5035938;28;20439;-73
2021/10/26 04:21:03;;;;;;;0.70;0.60;;;;;;;9.79;97.83;101373.97;5036425;28;20447;-73
2021/10/26 04:23:38;;;;;;;0.70;0.60;;;;;;;9.60;98.61;101385.03;5052591;28;20485;-73
2021/10/26 04:26:07;;;;;;;0.70;0.60;;;;;;;9.42;98.09;101383.09;5087390;28;20888;-73
2021/10/26 04:28:35;;;;;;;0.80;0.77;;;;;;;9.33;98.94;101381.66;5086337;28;20473;-73
2021/10/26 04:31:06;;;;;;;0.67;0.60;;;;;;;9.20;98.79;101385.59;5086061;28;20471;-73
2021/10/26 04:33:35;;;;;;;0.70;0.60;;;;;;;9.12;99.52;101398.00;5087296;28;20445;-73
2021/10/26 04:36:04;;;;;;;1.23;1.13;;;;;;;8.94;99.52;101391.66;5087197;28;20538;-73
2021/10/26 04:38:31;;;;;;;0.70;0.70;;;;;;;8.83;99.53;101402.41;5069959;28;20462;-73
2021/10/26 04:41:01;;;;;;;0.70;0.60;;;;;;;8.73;99.22;101408.78;5053486;28;20440;-73
2021/10/26 04:43:29;;;;;;;0.60;0.60;;;;;;;8.61;100.00;101410.00;5069909;28;20457;-75
2021/10/26 04:45:56;;;;;;;0.60;0.60;;;;;;;8.73;99.69;101417.38;5037068;28;20828;-74
2021/10/26 04:48:24;;;;;;;0.60;0.60;;;;;;;8.87;100.00;101413.47;5070415;28;20511;-73
2021/10/26 04:50:53;;;;;;;0.70;0.60;;;;;;;9.07;100.00;101418.00;5069972;28;20509;-74
2021/10/26 04:53:22;;;;;;;0.60;0.60;;;;;;;9.10;100.00;101421.34;5070132;28;20552;-73
2021/10/26 04:55:54;;;;;;;0.60;0.60;;;;;;;9.12;100.00;101419.53;5070200;28;20449;-74
2021/10/26 04:58:23;;;;;;;0.60;0.50;;;;;;;9.08;100.00;101425.72;5069368;28;20455;-73
2021/10/26 05:00:53;;;;;;;0.60;0.60;;;;;;;9.03;100.00;101425.03;5085775;28;20450;-73
2021/10/26 05:03:21;;;;;;;0.70;0.60;;;;;;;8.91;100.00;101415.91;5085986;28;20452;-74
2021/10/26 05:05:49;;;;;;;0.70;0.60;;;;;;;8.82;100.00;101428.31;5036909;28;20454;-74
2021/10/26 05:08:17;;;;;;;0.60;0.50;;;;;;;9.01;100.00;101424.22;5069205;28;20550;-74
2021/10/26 05:10:46;;;;;;;0.60;0.60;;;;;;;9.04;100.00;101423.28;5037130;28;20434;-73
2021/10/26 05:13:13;;;;;;;0.80;0.80;;;;;;;9.18;100.00;101416.72;5052639;28;20446;-75
2021/10/26 05:15:59;;;;;;;0.60;0.50;;;;;;;9.14;100.00;101411.72;5053101;28;20406;-74
2021/10/26 05:18:50;;;;;;;0.60;0.60;;;;;;;9.16;100.00;101417.69;5052824;28;20403;-73
2021/10/26 05:21:36;;;;;;;0.60;0.60;;;;;;;9.19;100.00;101415.00;5053835;28;20421;-73
2021/10/26 05:24:25;;;;;;;0.60;0.60;;;;;;;9.12;100.00;101418.69;5051687;28;20442;-73
2021/10/26 05:27:02;;;;;;;0.60;0.50;;;;;;;9.07;100.00;101424.03;5052420;28;20457;-73
2021/10/26 05:29:30;;;;;;;0.60;0.60;;;;;;;9.16;100.00;101426.31;5052406;28;20460;-73
2021/10/26 05:31:58;;;;;;;0.60;0.60;;;;;;;9.02;100.00;101429.38;5052296;28;20445;-73
2021/10/26 05:34:26;;;;;;;0.60;0.60;;;;;;;8.92;100.00;101424.56;5052466;28;20445;-73
2021/10/26 05:36:53;;;;;;;0.60;0.60;;;;;;;9.06;100.00;101429.25;5051703;28;20539;-73
2021/10/26 05:39:20;;;;;;;0.60;0.60;;;;;;;9.27;100.00;101436.28;5053009;28;21016;-74
2021/10/26 05:41:49;;;;;;;1.13;1.07;;;;;;;9.31;100.00;101440.50;5053489;28;20431;-75
2021/10/26 05:44:17;;;;;;;0.60;0.60;;;;;;;9.39;100.00;101442.81;5068217;28;20904;-74
2021/10/26 05:46:44;;;;;;;0.60;0.60;;;;;;;9.47;100.00;101443.38;5051923;28;20427;-73
2021/10/26 05:49:11;;;;;;;0.90;0.90;;;;;;;9.57;100.00;101442.16;5051909;28;20482;-73
2021/10/26 05:51:39;;;;;;;0.60;0.60;;;;;;;9.62;100.00;101441.97;5035460;28;20426;-73
2021/10/26 05:54:06;;;;;;;1.00;1.00;;;;;;;9.65;100.00;101442.72;5050503;28;20483;-73
2021/10/26 05:56:34;;;;;;;0.60;0.50;;;;;;;9.70;100.00;101437.38;5051345;28;20439;-73
2021/10/26 05:59:01;;;;;;;0.60;0.60;;;;;;;9.66;100.00;101434.03;5050798;28;20451;-73
2021/10/26 06:01:29;;;;;;;0.60;0.50;;;;;;;9.66;99.52;101441.81;5068653;28;20450;-73
2021/10/26 06:04:01;;;;;;;0.60;0.60;;;;;;;9.64;98.62;101438.44;5085183;28;20424;-73
2021/10/26 06:06:30;;;;;;;0.60;0.57;;;;;;;9.69;98.04;101443.44;5085488;28;20421;-73
2021/10/26 06:08:59;;;;;;;0.60;0.60;;;;;;;9.66;97.41;101440.97;5085247;28;20482;-73
2021/10/26 06:11:27;;;;;;;0.60;0.60;;;;;;;9.59;97.26;101445.53;5068507;28;20782;-73
2021/10/26 06:14:08;;;;;;;0.60;0.60;;;;;;;9.49;97.64;101443.34;5084577;28;20440;-73
2021/10/26 06:16:40;;;;;;;0.60;0.60;;;;;;;9.49;98.86;101459.72;5068742;28;21079;-73
2021/10/26 06:19:07;;;;;;;0.60;0.60;;;;;;;9.55;98.42;101458.66;5084710;28;20440;-73
2021/10/26 06:21:35;;;;;;;0.70;0.60;;;;;;;9.56;97.94;101460.34;5068288;28;20489;-73
2021/10/26 06:24:03;;;;;;;0.60;0.60;;;;;;;9.53;98.49;101471.69;5084099;28;20586;-73
2021/10/26 06:26:30;;;;;;;0.60;0.60;;;;;;;9.59;98.53;101474.03;5055758;28;20518;-72
2021/10/26 06:29:02;;;;;;;0.60;0.60;;;;;;;9.63;98.12;101475.63;5072364;28;20459;-73
2021/10/26 06:31:31;;;;;;;0.60;0.60;;;;;;;9.61;99.18;101479.19;5089332;28;21006;-73
2021/10/26 06:34:01;;;;;;;0.63;0.60;;;;;;;9.65;97.84;101494.56;5072412;28;20431;-74
2021/10/26 06:36:28;;;;;;;1.03;0.97;;;;;;;9.72;98.55;101505.56;5088913;28;20549;-73
2021/10/26 06:38:55;;;;;;;0.60;0.60;;;;;;;9.85;97.54;101503.38;5072004;28;20459;-73
2021/10/26 06:41:23;;;;;;;0.60;0.60;;;;;;;9.87;98.25;101506.75;5089677;28;20439;-73
2021/10/26 06:43:51;;;;;;;0.60;0.50;;;;;;;9.91;98.85;101513.53;5056667;28;20442;-75
2021/10/26 06:46:41;;;;;;;0.60;0.60;;;;;;;9.92;97.29;101512.66;5058176;28;20447;-72
2021/10/26 06:49:29;;;;;;;1.13;1.07;;;;;;;9.97;96.35;101518.50;5056793;28;20462;-73
2021/10/26 06:52:15;;;;;;;0.60;0.50;;;;;;;9.99;96.88;101523.63;5069510;28;20401;-73
2021/10/26 06:55:09;;;;;;;0.60;0.60;;;;;;;9.99;97.84;101524.47;5054384;28;20444;-72
2021/10/26 06:57:56;;;;;;;0.70;0.63;;;;;;;10.03;95.85;101530.41;5057309;28;20411;-73
2021/10/26 07:00:43;;;;;;;0.60;0.60;;;;;;;10.05;95.62;101528.59;5056510;28;20561;-73
2021/10/26 07:03:25;;;;;;;0.60;0.60;;;;;;;9.99;96.43;101527.06;5070051;28;20416;-73
2021/10/26 07:06:12;;;;;;;0.80;0.80;;;;;;;9.84;97.45;101532.78;5055876;28;20418;-73
2021/10/26 07:09:02;;;;;;;0.60;0.60;;;;;;;9.79;96.63;101530.34;5054442;28;20456;-73
2021/10/26 07:11:50;;;;;;;0.60;0.60;;;;;;;9.74;97.25;101532.28;5055876;28;20550;-73
2021/10/26 07:14:17;;;;;;;0.60;0.60;;;;;;;9.62;96.69;101543.91;5038631;28;20448;-73
2021/10/26 07:16:45;;;;;;;0.60;0.60;;;;;;;9.63;98.51;101540.44;5071684;28;20455;-73
2021/10/26 07:19:14;;;;;;;0.70;0.60;;;;;;;9.70;98.09;101543.66;5087930;28;20450;-73
2021/10/26 07:22:03;;;;;;;0.70;0.60;;;;;;;9.77;97.20;101547.72;5039880;28;20459;-74
2021/10/26 07:24:56;;;;;;;0.60;0.60;;;;;;;9.95;97.88;101548.00;5056377;28;20772;-71
2021/10/26 07:27:24;;;;;;;1.83;1.43;;;;;;;10.15;96.16;101547.28;5088109;28;21001;-71
2021/10/26 07:29:53;;;;;;;0.60;0.60;;;;;;;10.34;95.82;101550.91;5070273;28;21014;-72
2021/10/26 07:32:21;;;;;;;2.00;1.27;;;;;;;10.46;96.45;101554.78;5087896;28;20542;-73
2021/10/26 07:34:48;;;;;;;0.67;0.67;;;;;;;10.66;94.66;101543.66;5054661;28;20458;-72
2021/10/26 07:37:25;;;;;;;0.60;0.60;;;;;;;10.73;93.53;101545.97;5054690;28;20466;-73
2021/10/26 07:40:05;;;;;;;0.70;0.60;;;;;;;10.85;93.84;101542.03;5054386;28;20467;-73
2021/10/26 07:42:52;;;;;;;0.60;0.60;;;;;;;10.99;92.33;101541.47;5040688;28;20467;-74
2021/10/26 07:45:38;;;;;;;0.60;0.60;;;;;;;11.11;93.54;101545.34;5068943;28;20413;-74
2021/10/26 07:48:24;;;;;;;0.70;0.70;;;;;;;11.15;93.58;101547.75;5039024;28;20430;-75
2021/10/26 07:50:57;;;;;;;0.70;0.70;;;;;;;11.24;91.70;101553.47;5067508;28;20809;-74
2021/10/26 07:53:27;;;;;;;0.60;0.60;;;;;;;11.27;92.19;101561.13;5054188;28;20860;-73
2021/10/26 07:56:03;;;;;;;0.70;0.70;;;;;;;11.32;91.69;101554.03;5054274;28;20795;-73
2021/10/26 07:58:35;;;;;;;0.60;0.60;;;;;;;11.36;91.23;101551.22;5052902;28;20432;-75
2021/10/26 08:01:03;;;;;;;0.80;0.80;;;;;;;11.42;91.19;101564.91;5036465;28;20446;-74
2021/10/26 08:03:54;;;;;;;0.70;0.70;;;;;;;11.43;92.52;101563.97;5054137;28;20445;-74
2021/10/26 08:06:23;;;;;;;0.60;0.60;;;;;;;11.46;91.15;101566.44;5054042;28;20895;-74
2021/10/26 08:08:53;;;;;;;0.60;0.60;;;;;;;11.54;92.90;101572.19;5070511;28;20451;-74
2021/10/26 08:11:20;;;;;;;0.70;0.70;;;;;;;11.54;92.55;101575.63;5054000;28;20440;-74
2021/10/26 08:13:52;;;;;;;0.70;0.63;;;;;;;11.59;90.61;101581.47;5053463;28;20869;-74
2021/10/26 08:16:22;;;;;;;0.60;0.60;;;;;;;11.69;91.50;101581.94;5054001;28;20429;-74
2021/10/26 08:18:50;;;;;;;0.60;0.60;;;;;;;11.71;90.81;101579.25;5037153;28;20477;-74
2021/10/26 08:21:18;;;;;;;0.60;0.60;;;;;;;11.75;91.44;101571.25;5053921;28;20427;-74
2021/10/26 08:23:49;;;;;;;0.60;0.60;;;;;;;11.75;90.25;101579.06;5070137;28;20464;-75
2021/10/26 08:26:24;;;;;;;0.80;0.80;;;;;;;11.85;91.30;101578.66;5054122;28;20956;-74
2021/10/26 08:28:58;;;;;;;0.70;0.70;;;;;;;11.84;89.74;101582.19;5052526;28;20543;-74
2021/10/26 08:31:39;;;;;;;1.37;0.87;;;;;;;11.88;88.68;101588.97;5087321;28;20440;-73
2021/10/26 08:34:18;;;;;;;0.70;0.60;;;;;;;11.98;90.20;101585.09;5070642;28;20433;-73
2021/10/26 08:36:47;;;;;;;0.73;0.73;;;;;;;12.06;89.80;101593.38;5086783;28;20839;-74
2021/10/26 08:39:15;;;;;;;1.10;1.00;;;;;;;12.20;88.21;101587.59;5087040;28;20454;-73
2021/10/26 08:41:49;;;;;;;0.90;0.90;;;;;;;12.30;88.68;101594.06;5054362;28;20452;-74
2021/10/26 08:44:17;;;;;;;0.70;0.60;;;;;;;12.31;87.60;101593.16;5086018;28;21013;-74
2021/10/26 08:46:45;;;;;;;0.77;0.70;;;;;;;12.35;88.02;101592.09;5069815;28;20540;-74
2021/10/26 08:49:13;;;;;;;0.70;0.60;;;;;;;12.49;86.99;101594.06;5085489;28;20987;-75
2021/10/26 08:52:07;;;;;;;0.70;0.60;;;;;;;12.59;85.34;101582.34;5054609;28;20435;-73
2021/10/26 08:54:34;;;;;;;0.90;0.80;;;;;;;12.57;87.99;101584.16;5053641;28;20442;-73
2021/10/26 08:57:04;;;;;;;0.70;0.60;;;;;;;12.61;88.69;101580.47;5056786;28;20430;-73
2021/10/26 08:59:52;;;;;;;0.70;0.70;;;;;;;12.67;88.25;101581.97;5054050;28;20423;-74
2021/10/26 09:02:32;;;;;;;0.70;0.63;;;;;;;12.76;85.49;101575.47;5070298;28;20433;-73
2021/10/26 09:05:08;;;;;;;0.70;0.60;;;;;;;12.93;88.99;101578.13;5070979;28;20430;-74
2021/10/26 09:07:37;;;;;;;0.80;0.70;;;;;;;13.20;87.00;101577.72;5053162;28;20475;-73
2021/10/26 09:10:11;;;;;;;1.27;1.17;;;;;;;13.34;85.50;101577.94;5070334;28;20554;-73
2021/10/26 09:19:47;;;;;;;1.80;1.13;;;;;;;13.82;86.06;101584.22;5032158;28;20939;-73
2021/10/26 09:22:26;;;;;;;0.70;0.60;;;;;;;13.89;84.52;101577.78;5015435;28;20622;-73
2021/10/26 09:24:54;;;;;;;0.70;0.50;;;;;;;14.27;80.06;101585.34;5034730;28;20436;-72
2021/10/26 09:27:22;;;;;;;0.70;0.60;;;;;;;14.13;80.02;101586.09;5069692;28;20444;-73
2021/10/26 09:29:54;;;;;;;0.70;0.60;;;;;;;14.49;81.28;101589.44;5052631;28;20488;-73
2021/10/26 09:32:23;;;;;;;0.70;0.57;;;;;;;14.70;80.14;101577.84;5054870;28;20895;-73
2021/10/26 09:34:55;;;;;;;0.70;0.60;;;;;;;14.77;79.20;101575.72;5085810;28;20539;-72
2021/10/26 09:37:24;;;;;;;0.70;0.57;;;;;;;14.64;75.57;101577.34;5053782;28;20422;-73
2021/10/26 09:39:53;;;;;;;0.70;0.60;;;;;;;14.38;76.75;101571.75;5069529;28;20424;-73
2021/10/26 09:42:20;;;;;;;0.70;0.60;;;;;;;14.75;77.10;101575.00;5054440;28;20439;-73
2021/10/26 09:44:51;;;;;;;0.80;0.70;;;;;;;14.55;76.54;101565.59;5053508;28;20509;-72
2021/10/26 09:47:23;;;;;;;0.70;0.60;;;;;;;14.54;74.99;101564.78;5054217;28;20428;-73
2021/10/26 09:49:56;;;;;;;1.17;0.90;;;;;;;14.78;74.19;101573.03;5053938;28;20448;-72
2021/10/26 09:52:27;;;;;;;0.70;0.60;;;;;;;14.84;73.97;101565.78;5052517;28;20430;-71
2021/10/26 09:55:38;;;;;;;0.70;0.70;;;;;;;14.56;76.51;101575.97;5053401;28;20945;-73
2021/10/26 09:58:00;;;;;;;0.80;0.70;;;;;;;14.13;78.93;101572.19;5052174;28;20418;-73
2021/10/26 10:00:30;;;;;;;0.70;0.60;;;;;;;13.89;77.06;101582.13;5050737;28;20990;-73
2021/10/26 10:03:05;;;;;;;0.80;0.80;;;;;;;13.91;78.47;101588.13;5053982;28;20897;-73
2021/10/26 10:05:34;;;;;;;0.80;0.80;;;;;;;13.85;77.79;101580.63;5068347;28;20439;-74
2021/10/26 10:08:19;;;;;;;0.70;0.60;;;;;;;13.86;77.01;101579.69;5051145;28;20574;-73
2021/10/26 10:10:47;;;;;;;0.70;0.60;;;;;;;14.00;78.09;101582.44;5053701;28;20452;-72
2021/10/26 10:13:14;;;;;;;0.70;0.60;;;;;;;14.14;76.93;101579.94;5052451;28;20526;-73
2021/10/26 10:15:44;;;;;;;0.70;0.60;;;;;;;14.24;77.67;101587.28;5068662;28;20969;-73
2021/10/26 10:18:16;;;;;;;0.70;0.60;;;;;;;14.53;76.92;101577.91;5053923;28;20473;-74
2021/10/26 10:20:45;;;;;;;0.70;0.67;;;;;;;14.66;75.01;101578.94;5052818;28;20474;-72
2021/10/26 10:23:13;;;;;;;0.80;0.70;;;;;;;14.96;73.78;101576.38;5052190;28;20967;-73
2021/10/26 10:25:42;;;;;;;0.70;0.70;;;;;;;15.14;74.35;101569.28;5053041;28;20428;-73
2021/10/26 10:28:10;;;;;;;0.80;0.70;;;;;;;15.26;73.03;101575.56;5064593;28;20433;-73
2021/10/26 10:30:38;;;;;;;0.80;0.70;;;;;;;15.10;70.98;101573.00;5036195;28;20562;-73
2021/10/26 10:33:07;;;;;;;0.80;0.73;;;;;;;14.94;74.04;101574.78;5068317;28;20467;-73
2021/10/26 10:35:35;;;;;;;0.70;0.60;;;;;;;15.14;77.55;101574.53;5085368;28;20464;-72
2021/10/26 10:38:02;;;;;;;0.70;0.70;;;;;;;15.36;71.88;101578.50;5068411;28;20529;-72
2021/10/26 10:40:31;;;;;;;0.80;0.80;;;;;;;15.49;73.07;101574.25;5053316;28;20432;-73
2021/10/26 10:43:00;;;;;;;0.70;0.60;;;;;;;15.38;72.05;101571.41;5052862;28;20454;-73
2021/10/26 10:45:32;;;;;;;0.70;0.60;;;;;;;15.50;73.29;101570.69;5052261;28;20535;-73
2021/10/26 10:48:02;;;;;;;0.80;0.73;;;;;;;15.28;72.89;101572.88;5051482;28;20402;-73
2021/10/26 10:50:38;;;;;;;0.70;0.60;;;;;;;15.35;71.57;101577.66;5051769;28;20464;-73
2021/10/26 10:53:32;;;;;;;0.70;0.70;;;;;;;15.70;68.99;101574.78;5053043;28;20458;-72
2021/10/26 10:56:14;;;;;;;0.70;0.70;;;;;;;15.48;69.13;101572.56;5051415;28;20466;-73
2021/10/26 10:58:43;;;;;;;0.70;0.60;;;;;;;15.38;69.02;101568.78;5048792;28;20438;-74
2021/10/26 11:01:36;;;;;;;0.70;0.60;;;;;;;15.60;70.51;101569.22;5049783;28;20443;-74
2021/10/26 11:04:42;;;;;;;0.70;0.60;;;;;;;15.70;67.41;101566.94;5083199;28;20434;-74
2021/10/26 11:07:11;;;;;;;0.70;0.60;;;;;;;15.74;69.64;101575.47;5029397;28;20501;-73
2021/10/26 11:09:50;;;;;;;0.80;0.70;;;;;;;16.03;72.51;101573.72;5049961;28;20439;-73
2021/10/26 11:12:31;;;;;;;0.70;0.70;;;;;;;16.10;71.96;101569.78;5054405;28;20429;-72
2021/10/26 11:15:01;;;;;;;0.70;0.60;;;;;;;15.80;67.86;101569.84;5038711;28;20424;-72
2021/10/26 11:17:59;;;;;;;0.70;0.63;;;;;;;15.71;70.21;101565.19;5055128;28;20932;-74
2021/10/26 11:20:43;;;;;;;0.70;0.60;;;;;;;16.05;67.52;101566.59;5056608;28;20974;-71
2021/10/26 11:23:28;;;;;;;0.70;0.70;;;;;;;16.34;64.45;101562.19;5056282;28;20475;-73
2021/10/26 11:26:04;;;;;;;0.80;0.80;;;;;;;16.18;66.46;101571.94;5072033;28;20402;-72
2021/10/26 11:28:40;;;;;;;0.70;0.70;;;;;;;16.06;66.02;101568.28;5056857;28;20825;-72
2021/10/26 11:31:12;;;;;;;0.70;0.70;;;;;;;15.71;69.21;101567.78;5071369;28;20529;-73
2021/10/26 11:33:54;;;;;;;0.70;0.60;;;;;;;-144.52;100.00;61939.72;5088413;28;20447;-72
2021/10/26 11:36:30;;;;;;;0.80;0.77;;;;;;;-144.52;100.00;61939.72;5088238;28;20479;-73
2021/10/26 11:39:01;;;;;;;0.70;0.63;;;;;;;-144.52;100.00;61939.72;5070506;28;20466;-72
2021/10/26 11:41:30;;;;;;;0.70;0.70;;;;;;;-144.52;100.00;61939.72;5055836;28;20791;-73
2021/10/26 11:43:58;;;;;;;0.80;0.80;;;;;;;-144.52;100.00;61939.72;5053402;28;20865;-73
2021/10/26 11:46:31;;;;;;;0.70;0.67;;;;;;;-144.52;100.00;61939.72;5071251;28;20451;-73
2021/10/26 11:49:03;;;;;;;0.77;0.70;;;;;;;-144.52;100.00;61939.72;5055889;28;20408;-72
2021/10/26 11:51:37;;;;;;;0.70;0.70;;;;;;;-144.52;100.00;61939.72;5054206;28;20456;-72
2021/10/26 11:54:12;;;;;;;0.70;0.60;;;;;;;-144.52;100.00;61939.72;5087612;28;20451;-72
2021/10/26 11:56:43;;;;;;;0.80;0.70;;;;;;;-144.52;100.00;61939.72;5054974;28;20895;-71
2021/10/26 11:59:15;;;;;;;0.70;0.70;;;;;;;-144.52;100.00;61939.72;5054079;28;20427;-73
2021/10/26 12:01:53;;;;;;;0.70;0.60;;;;;;;-144.52;100.00;61939.72;5054658;28;20440;-71